createdAt,value
2019-03-20T00:02:18.241Z,0.00
2019-03-20T00:04:49.870Z,0.00
2019-03-20T00:07:15.934Z,-0.10
2019-03-20T00:09:44.002Z,-0.10
2019-03-20T00:12:11.955Z,-0.10
2019-03-20T00:14:39.841Z,-0.10
2019-03-20T00:17:07.774Z,-0.20
2019-03-20T00:19:35.710Z,-0.20
2019-03-20T00:22:03.573Z,-0.20
2019-03-20T00:24:31.502Z,-0.20
2019-03-20T00:26:59.387Z,-0.20
2019-03-20T00:29:27.371Z,-0.20
2019-03-20T00:31:55.245Z,-0.30
2019-03-20T00:34:23.127Z,-0.30
2019-03-20T00:36:51.001Z,-0.30
2019-03-20T00:39:19.002Z,-0.30
2019-03-20T00:41:46.927Z,-0.30
2019-03-20T00:44:14.783Z,-0.30
2019-03-20T00:46:42.683Z,-0.40
2019-03-20T00:49:10.615Z,-0.30
2019-03-20T00:51:38.524Z,-0.40
2019-03-20T00:54:06.468Z,-0.40
2019-03-20T00:56:34.355Z,-0.40
2019-03-20T00:59:02.311Z,-0.40
2019-03-20T01:01:30.294Z,-0.40
2019-03-20T01:03:58.184Z,-0.50
2019-03-20T01:06:26.062Z,-0.50
2019-03-20T01:08:53.943Z,-0.50
2019-03-20T01:11:21.825Z,-0.50
2019-03-20T01:13:49.772Z,-0.50
2019-03-20T01:16:17.710Z,-0.50
2019-03-20T01:18:45.576Z,-0.60
2019-03-20T01:21:13.573Z,-0.50
2019-03-20T01:23:41.425Z,-0.60
2019-03-20T01:26:09.342Z,-0.60
2019-03-20T01:28:37.296Z,-0.60
2019-03-20T01:31:05.508Z,-0.70
2019-03-20T01:33:33.380Z,-0.70
2019-03-20T01:36:01.337Z,-0.70
2019-03-20T01:38:29.622Z,-0.70
2019-03-20T01:40:57.986Z,-0.80
2019-03-20T01:43:25.945Z,-0.80
2019-03-20T01:45:53.873Z,-0.80
2019-03-20T01:48:22.230Z,-0.80
2019-03-20T01:50:50.217Z,-0.80
2019-03-20T01:53:18.080Z,-0.80
2019-03-20T01:55:46.059Z,-0.90
2019-03-20T01:58:14.076Z,-0.90
2019-03-20T02:00:42.119Z,-0.90
2019-03-20T02:03:10.012Z,-0.80
2019-03-20T02:05:37.902Z,-0.80
2019-03-20T02:08:05.764Z,-0.90
2019-03-20T02:10:33.727Z,-0.90
2019-03-20T02:13:01.598Z,-0.90
2019-03-20T02:15:38.177Z,-0.90
2019-03-20T02:17:59.211Z,-1.00
2019-03-20T02:20:27.158Z,-1.00
2019-03-20T02:22:55.155Z,-1.00
2019-03-20T02:25:23.137Z,-1.00
2019-03-20T02:27:51.012Z,-1.00
2019-03-20T02:30:18.995Z,-1.10
2019-03-20T02:32:46.986Z,-1.10
2019-03-20T02:35:14.910Z,-1.10
2019-03-20T02:37:43.067Z,-1.10
2019-03-20T02:40:10.988Z,-1.10
2019-03-20T02:42:38.887Z,-1.20
2019-03-20T02:45:06.771Z,-1.20
2019-03-20T02:47:34.607Z,-1.20
2019-03-20T02:50:02.472Z,-1.20
2019-03-20T02:52:30.445Z,-1.20
2019-03-20T02:54:58.584Z,-1.30
2019-03-20T02:57:26.637Z,-1.30
2019-03-20T02:59:54.559Z,-1.30
2019-03-20T03:02:22.450Z,-1.30
2019-03-20T03:04:50.385Z,-1.40
2019-03-20T03:07:18.345Z,-1.30
2019-03-20T03:09:46.279Z,-1.30
2019-03-20T03:12:14.196Z,-1.40
2019-03-20T03:14:42.165Z,-1.40
2019-03-20T03:17:10.152Z,-1.40
2019-03-20T03:19:38.083Z,-1.40
2019-03-20T03:22:06.029Z,-1.40
2019-03-20T03:24:33.901Z,-1.40
2019-03-20T03:27:01.800Z,-1.40
2019-03-20T03:29:29.765Z,-1.50
2019-03-20T03:31:57.623Z,-1.50
2019-03-20T03:34:25.501Z,-1.50
2019-03-20T03:36:53.415Z,-1.50
2019-03-20T03:39:21.313Z,-1.50
2019-03-20T03:41:49.377Z,-1.50
2019-03-20T03:44:17.324Z,-1.50
2019-03-20T03:46:45.371Z,-1.60
2019-03-20T03:49:13.327Z,-1.60
2019-03-20T03:51:41.294Z,-1.60
2019-03-20T03:54:09.177Z,-1.60
2019-03-20T03:56:37.108Z,-1.60
2019-03-20T03:59:05.092Z,-1.60
2019-03-20T04:01:32.995Z,-1.70
2019-03-20T04:04:01.152Z,-1.70
2019-03-20T04:06:35.585Z,-1.70
2019-03-20T04:08:58.754Z,-1.70
2019-03-20T04:11:26.657Z,-1.70
2019-03-20T04:13:54.537Z,-1.80
2019-03-20T04:16:22.539Z,-1.80
2019-03-20T04:18:50.777Z,-1.80
2019-03-20T04:21:18.779Z,-1.80
2019-03-20T04:23:46.780Z,-1.80
2019-03-20T04:26:14.720Z,-1.80
2019-03-20T04:28:42.632Z,-1.80
2019-03-20T04:31:10.629Z,-1.90
2019-03-20T04:33:38.572Z,-1.90
2019-03-20T04:36:06.529Z,-1.90
2019-03-20T04:38:34.396Z,-1.90
2019-03-20T04:41:01.742Z,-1.90
2019-03-20T04:43:29.678Z,-1.90
2019-03-20T04:45:57.576Z,-1.90
2019-03-20T04:48:25.413Z,-1.90
2019-03-20T04:50:53.312Z,-1.90
2019-03-20T04:53:21.202Z,-1.90
2019-03-20T04:55:49.072Z,-2.00
2019-03-20T04:58:17.035Z,-2.00
2019-03-20T05:00:44.971Z,-2.00
2019-03-20T05:03:12.860Z,-2.00
2019-03-20T05:05:40.725Z,-2.00
2019-03-20T05:08:08.062Z,-2.00
2019-03-20T05:10:35.964Z,-2.10
2019-03-20T05:13:03.991Z,-2.10
2019-03-20T05:15:31.868Z,-2.00
2019-03-20T05:17:59.780Z,-2.10
2019-03-20T05:20:27.725Z,-2.10
2019-03-20T05:22:55.701Z,-2.10
2019-03-20T05:25:23.680Z,-2.10
2019-03-20T05:27:51.658Z,-2.10
2019-03-20T05:30:19.538Z,-2.20
2019-03-20T05:32:47.413Z,-2.20
2019-03-20T05:35:15.260Z,-2.20
2019-03-20T05:37:43.170Z,-2.20
2019-03-20T05:40:11.052Z,-2.20
2019-03-20T05:42:38.942Z,-2.20
2019-03-20T05:45:06.859Z,-2.20
2019-03-20T05:47:34.764Z,-2.20
2019-03-20T05:50:02.618Z,-2.20
2019-03-20T05:52:30.516Z,-2.20
2019-03-20T05:54:58.391Z,-2.20
2019-03-20T05:57:25.792Z,-2.20
2019-03-20T05:59:53.752Z,-2.20
2019-03-20T06:02:21.668Z,-2.20
2019-03-20T06:04:49.515Z,-2.20
2019-03-20T06:07:21.621Z,-2.20
2019-03-20T06:09:46.543Z,-2.20
2019-03-20T06:12:14.665Z,-2.10
2019-03-20T06:14:42.725Z,-2.10
2019-03-20T06:17:10.640Z,-2.10
2019-03-20T06:19:38.485Z,-2.10
2019-03-20T06:22:06.348Z,-2.10
2019-03-20T06:24:34.209Z,-2.00
2019-03-20T06:27:02.218Z,-2.10
2019-03-20T06:29:30.185Z,-2.10
2019-03-20T06:31:58.136Z,-2.00
2019-03-20T06:34:26.011Z,-2.00
2019-03-20T06:36:53.915Z,-2.00
2019-03-20T06:39:21.788Z,-2.00
2019-03-20T06:41:49.787Z,-2.00
2019-03-20T06:44:17.669Z,-2.00
2019-03-20T06:46:45.581Z,-1.90
2019-03-20T06:49:13.597Z,-1.90
2019-03-20T06:51:41.455Z,-1.90
2019-03-20T06:54:09.384Z,-1.90
2019-03-20T06:56:37.264Z,-1.80
2019-03-20T06:59:05.187Z,-1.80
2019-03-20T07:01:33.085Z,-1.80
2019-03-20T07:04:01.068Z,-1.70
2019-03-20T07:06:29.017Z,-1.70
2019-03-20T07:08:56.997Z,-1.50
2019-03-20T07:11:24.896Z,-1.50
2019-03-20T07:13:52.881Z,-1.40
2019-03-20T07:16:20.828Z,-1.40
2019-03-20T07:18:48.779Z,-1.40
2019-03-20T07:21:18.655Z,-1.40
2019-03-20T07:23:46.245Z,-1.30
2019-03-20T07:26:14.114Z,-1.20
2019-03-20T07:28:42.028Z,-1.10
2019-03-20T07:31:15.245Z,-1.00
2019-03-20T07:33:39.498Z,-0.90
2019-03-20T07:36:07.456Z,-0.80
2019-03-20T07:38:35.386Z,-0.60
2019-03-20T07:41:03.278Z,-0.50
2019-03-20T07:43:31.175Z,-0.30
2019-03-20T07:45:59.025Z,-0.10
2019-03-20T07:48:26.856Z,0.00
2019-03-20T07:50:54.774Z,0.20
2019-03-20T07:53:22.701Z,0.30
2019-03-20T07:55:50.646Z,0.40
2019-03-20T07:58:18.511Z,0.60
2019-03-20T08:00:46.381Z,0.70
2019-03-20T08:03:14.265Z,0.90
2019-03-20T08:05:42.128Z,1.10
2019-03-20T08:08:10.027Z,1.20
2019-03-20T08:10:37.882Z,1.30
2019-03-20T08:13:05.786Z,1.50
2019-03-20T08:15:33.649Z,1.70
2019-03-20T08:18:01.525Z,1.80
2019-03-20T08:20:29.375Z,2.00
2019-03-20T08:22:57.236Z,2.20
2019-03-20T08:25:25.122Z,2.40
2019-03-20T08:27:53.069Z,2.60
2019-03-20T08:30:21.028Z,2.80
2019-03-20T08:32:48.888Z,3.00
2019-03-20T08:35:16.887Z,3.10
2019-03-20T08:37:44.819Z,3.30
2019-03-20T08:40:12.702Z,3.50
2019-03-20T08:42:40.574Z,3.70
2019-03-20T08:45:08.554Z,4.00
2019-03-20T08:47:36.488Z,4.10
2019-03-20T08:50:04.396Z,4.40
2019-03-20T08:52:32.364Z,4.60
2019-03-20T08:55:00.423Z,4.80
2019-03-20T08:57:28.288Z,5.00
2019-03-20T08:59:56.166Z,5.20
2019-03-20T09:02:24.029Z,5.40
2019-03-20T09:04:52.055Z,5.70
2019-03-20T09:07:19.993Z,5.90
2019-03-20T09:09:47.901Z,6.10
2019-03-20T09:12:15.836Z,6.30
2019-03-20T09:14:43.892Z,6.40
2019-03-20T09:17:12.619Z,6.60
2019-03-20T09:19:40.727Z,6.90
2019-03-20T09:22:08.597Z,7.10
2019-03-20T09:24:36.483Z,7.30
2019-03-20T09:27:04.320Z,7.60
2019-03-20T09:29:36.253Z,7.80
2019-03-20T09:32:01.857Z,8.00
2019-03-20T09:34:29.841Z,8.20
2019-03-20T09:36:57.712Z,8.40
2019-03-20T09:39:25.611Z,8.70
2019-03-20T09:41:53.473Z,8.90
2019-03-20T09:44:21.363Z,9.10
2019-03-20T09:46:49.217Z,9.40
2019-03-20T09:49:17.100Z,9.50
2019-03-20T09:51:44.965Z,9.70
2019-03-20T09:54:12.858Z,9.90
2019-03-20T09:56:40.794Z,10.00
2019-03-20T09:59:08.632Z,10.20
2019-03-20T10:01:36.504Z,10.40
2019-03-20T10:04:04.461Z,10.60
2019-03-20T10:06:32.369Z,10.70
2019-03-20T10:09:01.988Z,10.80
2019-03-20T10:11:30.055Z,10.90
2019-03-20T10:13:57.955Z,11.00
2019-03-20T10:16:25.836Z,11.20
2019-03-20T10:18:53.699Z,11.40
2019-03-20T10:21:21.587Z,11.30
2019-03-20T10:23:49.434Z,11.40
2019-03-20T10:26:17.296Z,11.30
2019-03-20T10:28:45.187Z,11.30
2019-03-20T10:31:13.054Z,11.50
2019-03-20T10:33:40.956Z,11.70
2019-03-20T10:36:08.811Z,11.80
2019-03-20T10:38:36.764Z,11.90
2019-03-20T10:41:04.649Z,12.00
2019-03-20T10:43:32.567Z,11.90
2019-03-20T10:46:00.504Z,12.00
2019-03-20T10:48:28.492Z,12.10
2019-03-20T10:50:56.424Z,12.30
2019-03-20T10:53:24.347Z,12.50
2019-03-20T10:55:52.200Z,12.70
2019-03-20T10:58:20.055Z,12.80
2019-03-20T11:00:48.003Z,12.90
2019-03-20T11:03:15.970Z,12.90
2019-03-20T11:05:43.978Z,13.00
2019-03-20T11:08:13.054Z,12.90
2019-03-20T11:10:41.064Z,13.00
2019-03-20T11:13:09.028Z,13.00
2019-03-20T11:15:37.001Z,13.10
2019-03-20T11:18:04.936Z,13.40
2019-03-20T11:20:32.845Z,13.40
2019-03-20T11:23:00.695Z,13.40
2019-03-20T11:25:28.709Z,13.40
2019-03-20T11:27:56.627Z,13.30
2019-03-20T11:30:24.546Z,13.40
2019-03-20T11:32:52.451Z,13.40
2019-03-20T11:35:20.360Z,13.30
2019-03-20T11:37:48.240Z,13.40
2019-03-20T11:40:16.127Z,13.60
2019-03-20T11:42:43.974Z,13.70
2019-03-20T11:45:11.868Z,13.60
2019-03-20T11:47:39.729Z,13.50
2019-03-20T11:50:07.626Z,13.50
2019-03-20T11:52:35.490Z,13.60
2019-03-20T11:55:03.395Z,13.70
2019-03-20T11:57:31.244Z,13.60
2019-03-20T11:59:59.115Z,13.50
2019-03-20T12:02:28.313Z,13.70
2019-03-20T12:04:56.651Z,13.60
2019-03-20T12:07:24.604Z,13.70
2019-03-20T12:09:52.600Z,13.90
2019-03-20T12:12:20.571Z,14.00
2019-03-20T12:14:48.470Z,14.20
2019-03-20T12:17:16.423Z,14.30
2019-03-20T12:19:45.068Z,14.40
2019-03-20T12:22:13.175Z,14.40
2019-03-20T12:24:41.076Z,14.50
2019-03-20T12:27:14.956Z,14.50
2019-03-20T12:29:38.621Z,14.50
2019-03-20T12:32:06.502Z,14.50
2019-03-20T12:34:34.417Z,14.40
2019-03-20T12:37:02.380Z,14.30
2019-03-20T12:39:30.423Z,14.20
2019-03-20T12:41:58.407Z,14.30
2019-03-20T12:44:26.355Z,14.60
2019-03-20T12:46:54.239Z,14.60
2019-03-20T12:49:22.144Z,14.70
2019-03-20T12:51:50.024Z,14.80
2019-03-20T12:54:17.904Z,14.70
2019-03-20T12:56:45.859Z,14.80
2019-03-20T12:59:13.734Z,14.60
2019-03-20T13:01:41.629Z,14.80
2019-03-20T13:04:09.471Z,14.90
2019-03-20T13:06:39.253Z,15.00
2019-03-20T13:09:07.174Z,14.90
2019-03-20T13:11:35.188Z,14.90
2019-03-20T13:14:03.296Z,14.90
2019-03-20T13:16:31.305Z,15.00
2019-03-20T13:18:59.400Z,14.70
2019-03-20T13:21:27.522Z,14.60
2019-03-20T13:23:55.518Z,14.60
2019-03-20T13:26:25.319Z,14.60
2019-03-20T13:28:53.283Z,14.60
2019-03-20T13:31:21.268Z,14.60
2019-03-20T13:33:49.494Z,14.60
2019-03-20T13:36:19.040Z,14.60
2019-03-20T13:38:47.158Z,14.70
2019-03-20T13:41:15.209Z,14.80
2019-03-20T13:43:43.147Z,14.90
2019-03-20T13:46:12.113Z,15.10
2019-03-20T13:48:40.178Z,15.10
2019-03-20T13:51:08.235Z,15.10
2019-03-20T13:53:36.275Z,15.20
2019-03-20T13:56:04.381Z,15.20
2019-03-20T13:58:32.293Z,15.20
2019-03-20T14:01:00.188Z,15.30
2019-03-20T14:03:28.158Z,15.40
2019-03-20T14:05:57.898Z,15.40
2019-03-20T14:08:25.793Z,15.50
2019-03-20T14:10:53.621Z,15.70
2019-03-20T14:13:21.478Z,15.80
2019-03-20T14:15:49.324Z,15.80
2019-03-20T14:18:17.211Z,15.90
2019-03-20T14:20:45.178Z,15.90
2019-03-20T14:23:13.119Z,16.00
2019-03-20T14:25:40.943Z,16.10
2019-03-20T14:28:08.812Z,16.10
2019-03-20T14:30:36.828Z,16.20
2019-03-20T14:33:04.682Z,16.30
2019-03-20T14:35:32.638Z,16.40
2019-03-20T14:38:00.515Z,16.50
2019-03-20T14:40:35.505Z,16.50
2019-03-20T14:42:58.380Z,16.50
2019-03-20T14:45:26.390Z,16.60
2019-03-20T14:47:54.240Z,16.60
2019-03-20T14:50:22.109Z,16.40
2019-03-20T14:52:49.979Z,16.50
2019-03-20T14:55:17.875Z,16.60
2019-03-20T14:57:45.734Z,16.80
2019-03-20T15:00:13.590Z,16.90
2019-03-20T15:02:41.479Z,17.10
2019-03-20T15:05:09.355Z,17.30
2019-03-20T15:07:37.259Z,17.50
2019-03-20T15:10:05.138Z,17.60
2019-03-20T15:12:32.987Z,17.70
2019-03-20T15:15:00.866Z,17.90
2019-03-20T15:17:28.707Z,18.10
2019-03-20T15:19:56.584Z,18.40
2019-03-20T15:22:24.578Z,18.50
2019-03-20T15:24:52.515Z,18.60
2019-03-20T15:27:20.455Z,18.40
2019-03-20T15:29:48.319Z,18.70
2019-03-20T15:32:16.213Z,19.20
2019-03-20T15:34:44.084Z,19.40
2019-03-20T15:37:12.054Z,19.70
2019-03-20T15:39:39.920Z,19.20
2019-03-20T15:42:07.802Z,19.60
2019-03-20T15:44:35.731Z,19.50
2019-03-20T15:47:03.714Z,19.60
2019-03-20T15:49:31.624Z,19.50
2019-03-20T15:51:59.513Z,19.40
2019-03-20T15:54:27.411Z,19.20
2019-03-20T15:56:56.147Z,19.10
2019-03-20T15:59:24.144Z,19.00
2019-03-20T16:01:52.089Z,18.80
2019-03-20T16:04:19.996Z,18.90
2019-03-20T16:06:47.942Z,19.00
2019-03-20T16:09:15.919Z,19.00
2019-03-20T16:11:43.795Z,19.30
2019-03-20T16:14:11.716Z,19.40
2019-03-20T16:16:39.577Z,19.60
2019-03-20T16:19:07.450Z,20.10
2019-03-20T16:21:35.411Z,20.70
2019-03-20T16:24:03.359Z,20.70
2019-03-20T16:26:31.195Z,21.10
2019-03-20T16:28:59.081Z,21.10
2019-03-20T16:31:26.931Z,21.00
2019-03-20T16:33:54.838Z,20.60
2019-03-20T16:36:22.808Z,20.30
2019-03-20T16:38:50.688Z,19.70
2019-03-20T16:41:18.663Z,18.80
2019-03-20T16:43:46.577Z,18.20
2019-03-20T16:46:14.450Z,17.30
2019-03-20T16:48:42.343Z,16.30
2019-03-20T16:51:10.361Z,15.50
2019-03-20T16:53:38.341Z,14.90
2019-03-20T16:56:06.225Z,14.30
2019-03-20T16:58:34.110Z,13.90
2019-03-20T17:01:20.991Z,13.50
2019-03-20T17:03:48.935Z,13.10
2019-03-20T17:06:16.813Z,12.90
2019-03-20T17:08:44.682Z,12.70
2019-03-20T17:11:12.543Z,12.50
2019-03-20T17:13:40.421Z,12.20
2019-03-20T17:16:08.268Z,12.00
2019-03-20T17:18:36.194Z,11.80
2019-03-20T17:21:04.109Z,11.50
2019-03-20T17:23:32.015Z,11.30
2019-03-20T17:25:59.884Z,11.20
2019-03-20T17:28:27.768Z,11.00
2019-03-20T17:30:55.620Z,10.80
2019-03-20T17:33:23.475Z,10.70
2019-03-20T17:35:51.334Z,10.50
2019-03-20T17:38:19.454Z,10.30
2019-03-20T17:40:47.383Z,10.10
2019-03-20T17:43:15.267Z,9.90
2019-03-20T17:45:43.145Z,9.80
2019-03-20T17:48:11.045Z,9.60
2019-03-20T17:50:38.988Z,9.50
2019-03-20T17:53:06.863Z,9.40
2019-03-20T17:55:34.739Z,9.20
2019-03-20T17:58:02.685Z,9.10
2019-03-20T18:00:38.961Z,9.00
2019-03-20T18:03:06.915Z,8.80
2019-03-20T18:05:34.857Z,8.70
2019-03-20T18:08:02.718Z,8.60
2019-03-20T18:10:30.647Z,8.50
2019-03-20T18:12:58.555Z,8.40
2019-03-20T18:15:26.394Z,8.30
2019-03-20T18:17:54.290Z,8.20
2019-03-20T18:20:22.159Z,8.10
2019-03-20T18:22:50.119Z,8.10
2019-03-20T18:25:17.971Z,8.00
2019-03-20T18:27:45.876Z,7.90
2019-03-20T18:30:13.741Z,7.80
2019-03-20T18:32:41.612Z,7.70
2019-03-20T18:35:09.501Z,7.60
2019-03-20T18:37:37.346Z,7.60
2019-03-20T18:40:05.304Z,7.50
2019-03-20T18:42:33.235Z,7.40
2019-03-20T18:45:02.955Z,7.30
2019-03-20T18:47:30.936Z,7.20
2019-03-20T18:49:58.935Z,7.10
2019-03-20T18:52:26.898Z,7.10
2019-03-20T18:54:54.936Z,7.00
2019-03-20T18:57:22.780Z,6.90
2019-03-20T18:59:50.691Z,6.80
2019-03-20T19:02:18.653Z,6.70
2019-03-20T19:04:46.577Z,6.60
2019-03-20T19:07:14.514Z,6.50
2019-03-20T19:09:42.443Z,6.40
2019-03-20T19:12:10.430Z,6.30
2019-03-20T19:14:38.380Z,6.20
2019-03-20T19:17:06.412Z,6.20
2019-03-20T19:19:34.513Z,6.10
2019-03-20T19:22:02.392Z,6.10
2019-03-20T19:24:30.254Z,6.00
2019-03-20T19:26:58.168Z,6.00
2019-03-20T19:29:26.282Z,5.90
2019-03-20T19:31:55.775Z,5.80
2019-03-20T19:34:23.987Z,5.70
2019-03-20T19:36:51.980Z,5.60
2019-03-20T19:39:19.918Z,5.50
2019-03-20T19:41:47.866Z,5.40
2019-03-20T19:44:15.827Z,5.40
2019-03-20T19:46:43.720Z,5.40
2019-03-20T19:49:11.716Z,5.40
2019-03-20T19:51:39.681Z,5.40
2019-03-20T19:54:07.659Z,5.30
2019-03-20T19:56:35.559Z,5.20
2019-03-20T19:59:03.536Z,5.10
2019-03-20T20:01:31.504Z,5.00
2019-03-20T20:03:59.413Z,5.00
2019-03-20T20:06:27.370Z,4.90
2019-03-20T20:08:55.350Z,4.80
2019-03-20T20:11:23.378Z,4.80
2019-03-20T20:13:53.805Z,4.80
2019-03-20T20:16:21.855Z,4.80
2019-03-20T20:18:49.959Z,4.70
2019-03-20T20:21:17.905Z,4.60
2019-03-20T20:23:45.886Z,4.60
2019-03-20T20:26:13.944Z,4.60
2019-03-20T20:28:42.004Z,4.50
2019-03-20T20:31:10.068Z,4.40
2019-03-20T20:33:38.311Z,4.30
2019-03-20T20:36:06.385Z,4.30
2019-03-20T20:38:34.377Z,4.20
2019-03-20T20:41:02.386Z,4.20
2019-03-20T20:43:30.386Z,4.10
2019-03-20T20:45:58.289Z,4.10
2019-03-20T20:48:26.290Z,4.00
2019-03-20T20:50:54.264Z,4.00
2019-03-20T20:53:22.339Z,3.90
2019-03-20T20:55:59.241Z,3.90
2019-03-20T20:58:27.284Z,3.80
2019-03-20T21:00:55.352Z,3.70
2019-03-20T21:03:23.329Z,3.70
2019-03-20T21:05:51.397Z,3.70
2019-03-20T21:08:19.431Z,3.60
2019-03-20T21:10:47.521Z,3.50
2019-03-20T21:13:15.509Z,3.50
2019-03-20T21:15:43.455Z,3.50
2019-03-20T21:18:12.331Z,3.40
2019-03-20T21:20:40.298Z,3.40
2019-03-20T21:23:08.268Z,3.30
2019-03-20T21:25:36.231Z,3.30
2019-03-20T21:28:04.248Z,3.30
2019-03-20T21:30:32.224Z,3.30
2019-03-20T21:33:00.170Z,3.30
2019-03-20T21:35:28.048Z,3.20
2019-03-20T21:37:55.970Z,3.20
2019-03-20T21:40:23.922Z,3.10
2019-03-20T21:42:51.886Z,3.10
2019-03-20T21:45:19.926Z,3.00
2019-03-20T21:47:47.821Z,2.90
2019-03-20T21:50:15.771Z,2.80
2019-03-20T21:52:43.731Z,2.80
2019-03-20T21:55:11.937Z,2.70
2019-03-20T21:57:39.844Z,2.70
2019-03-20T22:00:07.809Z,2.70
2019-03-20T22:02:36.139Z,2.60
2019-03-20T22:05:04.008Z,2.60
2019-03-20T22:07:31.880Z,2.60
2019-03-20T22:09:59.805Z,2.60
2019-03-20T22:12:27.686Z,2.50
2019-03-20T22:14:55.660Z,2.50
2019-03-20T22:17:23.674Z,2.50
2019-03-20T22:19:51.618Z,2.50
2019-03-20T22:22:19.663Z,2.40
2019-03-20T22:24:47.688Z,2.40
2019-03-20T22:27:15.698Z,2.40
2019-03-20T22:29:43.778Z,2.40
2019-03-20T22:32:11.797Z,2.40
2019-03-20T22:34:39.681Z,2.30
2019-03-20T22:37:07.632Z,2.30
2019-03-20T22:39:35.506Z,2.20
2019-03-20T22:42:03.413Z,2.20
2019-03-20T22:44:31.294Z,2.20
2019-03-20T22:46:59.276Z,2.10
2019-03-20T22:49:27.186Z,2.10
2019-03-20T22:51:55.185Z,2.10
2019-03-20T22:54:23.154Z,2.10
2019-03-20T22:56:51.139Z,2.10
2019-03-20T22:59:19.193Z,2.10
2019-03-20T23:01:47.390Z,2.00
2019-03-20T23:04:15.340Z,2.00
2019-03-20T23:06:43.313Z,2.00
2019-03-20T23:09:11.515Z,1.90
2019-03-20T23:11:39.476Z,1.90
2019-03-20T23:14:07.499Z,1.90
2019-03-20T23:16:35.500Z,1.80
2019-03-20T23:19:03.383Z,1.80
2019-03-20T23:21:31.359Z,1.80
2019-03-20T23:23:59.423Z,1.70
2019-03-20T23:26:27.471Z,1.70
2019-03-20T23:28:55.476Z,1.70
2019-03-20T23:31:23.507Z,1.70
2019-03-20T23:33:51.662Z,1.60
2019-03-20T23:36:19.518Z,1.60
2019-03-20T23:38:47.513Z,1.60
2019-03-20T23:41:15.419Z,1.50
2019-03-20T23:43:52.379Z,1.60
2019-03-20T23:46:13.003Z,1.50
2019-03-20T23:48:40.899Z,1.50
2019-03-20T23:51:08.928Z,1.40
2019-03-20T23:53:36.872Z,1.40
2019-03-20T23:56:04.885Z,1.40
2019-03-20T23:58:32.856Z,1.50
